createdAt,value
2019-04-03T00:00:09.022Z,82.00
2019-04-03T00:02:37.880Z,82.40
2019-04-03T00:05:07.540Z,82.50
2019-04-03T00:07:36.347Z,83.30
2019-04-03T00:10:07.434Z,84.10
2019-04-03T00:12:37.310Z,84.30
2019-04-03T00:15:07.778Z,84.10
2019-04-03T00:17:36.714Z,84.70
2019-04-03T00:20:07.765Z,85.90
2019-04-03T00:22:37.758Z,86.80
2019-04-03T00:25:08.115Z,87.50
2019-04-03T00:27:36.971Z,87.50
2019-04-03T00:30:07.850Z,87.50
2019-04-03T00:32:38.104Z,86.90
2019-04-03T00:35:08.149Z,86.30
2019-04-03T00:37:37.217Z,86.30
2019-04-03T00:40:07.778Z,86.20
2019-04-03T00:42:36.655Z,86.50
2019-04-03T00:45:07.302Z,86.10
2019-04-03T00:47:36.355Z,85.60
2019-04-03T00:50:07.003Z,85.60
2019-04-03T00:52:36.015Z,85.00
2019-04-03T00:55:05.926Z,84.40
2019-04-03T00:57:34.898Z,84.40
2019-04-03T01:00:05.433Z,84.30
2019-04-03T01:02:34.279Z,83.40
2019-04-03T01:05:03.610Z,84.20
2019-04-03T01:07:32.402Z,83.40
2019-04-03T01:10:01.550Z,83.70
2019-04-03T01:12:31.457Z,83.80
2019-04-03T01:15:01.677Z,84.00
2019-04-03T01:17:30.932Z,83.80
2019-04-03T01:19:59.761Z,83.60
2019-04-03T01:22:28.644Z,83.60
2019-04-03T01:24:57.477Z,83.20
2019-04-03T01:27:26.325Z,84.00
2019-04-03T01:29:55.182Z,84.60
2019-04-03T01:32:24.089Z,84.70
2019-04-03T01:34:52.953Z,84.60
2019-04-03T01:37:22.141Z,84.70
2019-04-03T01:39:51.283Z,84.70
2019-04-03T01:42:22.568Z,84.30
2019-04-03T01:44:51.743Z,84.20
2019-04-03T01:47:20.741Z,83.70
2019-04-03T01:49:49.622Z,84.10
2019-04-03T01:52:18.444Z,83.50
2019-04-03T01:54:47.277Z,83.20
2019-04-03T01:57:16.097Z,82.90
2019-04-03T01:59:45.522Z,82.60
2019-04-03T02:02:14.792Z,82.70
2019-04-03T02:04:43.590Z,82.00
2019-04-03T02:07:14.345Z,81.50
2019-04-03T02:09:42.927Z,81.10
2019-04-03T02:12:11.931Z,80.30
2019-04-03T02:14:41.009Z,80.70
2019-04-03T02:17:10.143Z,80.80
2019-04-03T02:19:38.946Z,80.80
2019-04-03T02:22:09.025Z,80.90
2019-04-03T02:24:39.087Z,80.80
2019-04-03T02:27:08.059Z,80.50
2019-04-03T02:29:39.303Z,81.20
2019-04-03T02:32:08.348Z,80.70
2019-04-03T02:34:37.477Z,81.00
2019-04-03T02:37:06.365Z,81.20
2019-04-03T02:39:35.137Z,81.80
2019-04-03T02:42:07.813Z,82.20
2019-04-03T02:44:34.785Z,82.30
2019-04-03T02:47:03.689Z,82.30
2019-04-03T02:49:32.481Z,81.00
2019-04-03T02:52:01.448Z,80.80
2019-04-03T02:54:34.740Z,79.40
2019-04-03T02:57:02.003Z,78.00
2019-04-03T02:59:31.119Z,76.90
2019-04-03T03:01:59.978Z,76.70
2019-04-03T03:04:29.360Z,76.20
2019-04-03T03:06:58.291Z,76.60
2019-04-03T03:09:27.391Z,77.00
2019-04-03T03:11:57.149Z,77.00
2019-04-03T03:14:26.637Z,76.90
2019-04-03T03:16:55.884Z,75.90
2019-04-03T03:19:26.566Z,75.30
2019-04-03T03:21:58.696Z,75.20
2019-04-03T03:24:30.193Z,75.10
2019-04-03T03:26:59.914Z,75.20
2019-04-03T03:29:29.428Z,75.20
2019-04-03T03:32:11.183Z,75.60
2019-04-03T03:34:47.395Z,76.60
2019-04-03T03:37:02.745Z,77.40
2019-04-03T03:39:32.144Z,77.90
2019-04-03T03:42:01.873Z,78.90
2019-04-03T03:44:30.899Z,79.20
2019-04-03T03:47:01.923Z,79.80
2019-04-03T03:49:31.107Z,80.70
2019-04-03T03:52:04.057Z,80.10
2019-04-03T03:54:31.914Z,79.80
2019-04-03T03:57:03.989Z,79.70
2019-04-03T03:59:32.173Z,79.80
2019-04-03T04:02:03.273Z,79.70
2019-04-03T04:04:31.650Z,78.00
2019-04-03T04:07:03.363Z,77.00
2019-04-03T04:09:31.701Z,77.00
2019-04-03T04:12:04.275Z,77.20
2019-04-03T04:14:31.062Z,76.40
2019-04-03T04:17:00.324Z,74.60
2019-04-03T04:19:30.898Z,72.20
2019-04-03T04:22:00.121Z,72.70
2019-04-03T04:24:29.146Z,71.50
2019-04-03T04:26:58.078Z,71.30
2019-04-03T04:29:28.097Z,70.50
2019-04-03T04:31:57.231Z,70.50
2019-04-03T04:34:27.537Z,71.50
2019-04-03T04:36:56.524Z,69.90
2019-04-03T04:39:28.000Z,71.50
2019-04-03T04:41:55.895Z,71.90
2019-04-03T04:44:25.010Z,70.50
2019-04-03T04:46:54.546Z,69.40
2019-04-03T04:49:31.047Z,68.80
2019-04-03T04:51:59.935Z,68.20
2019-04-03T04:54:30.490Z,67.90
2019-04-03T04:56:59.372Z,68.20
2019-04-03T04:59:28.118Z,68.60
2019-04-03T05:01:57.012Z,69.40
2019-04-03T05:04:25.917Z,69.10
2019-04-03T05:06:55.061Z,69.30
2019-04-03T05:09:26.123Z,68.50
2019-04-03T05:11:56.533Z,68.90
2019-04-03T05:14:25.344Z,68.50
2019-04-03T05:16:55.925Z,67.90
2019-04-03T05:19:24.910Z,67.30
2019-04-03T05:21:53.774Z,66.80
2019-04-03T05:24:22.586Z,67.40
2019-04-03T05:26:51.699Z,69.10
2019-04-03T05:29:21.768Z,68.10
2019-04-03T05:31:53.340Z,68.70
2019-04-03T05:34:22.415Z,68.60
2019-04-03T05:36:51.580Z,69.30
2019-04-03T05:39:23.454Z,69.60
2019-04-03T05:41:51.354Z,70.70
2019-04-03T05:44:23.050Z,70.80
2019-04-03T05:46:50.685Z,71.00
2019-04-03T05:49:19.740Z,71.60
2019-04-03T05:51:49.139Z,72.30
2019-04-03T05:54:18.125Z,72.60
2019-04-03T05:56:47.012Z,72.30
2019-04-03T05:59:15.965Z,73.00
2019-04-03T06:01:46.751Z,73.50
2019-04-03T06:04:15.374Z,73.00
2019-04-03T06:06:46.088Z,73.10
2019-04-03T06:09:14.761Z,74.20
2019-04-03T06:11:43.928Z,74.10
2019-04-03T06:14:12.914Z,72.90
2019-04-03T06:16:41.785Z,73.20
2019-04-03T06:19:10.730Z,72.60
2019-04-03T06:21:39.715Z,72.40
2019-04-03T06:24:08.531Z,72.70
2019-04-03T06:26:38.064Z,74.20
2019-04-03T06:29:08.201Z,73.80
2019-04-03T06:31:37.486Z,73.60
2019-04-03T06:34:07.644Z,74.90
2019-04-03T06:36:37.183Z,73.60
2019-04-03T06:39:08.735Z,73.30
2019-04-03T06:41:38.548Z,72.90
2019-04-03T06:44:08.943Z,74.20
2019-04-03T06:46:38.669Z,74.30
2019-04-03T06:49:08.499Z,74.00
2019-04-03T06:51:37.899Z,74.20
2019-04-03T06:54:08.101Z,74.20
2019-04-03T06:56:40.132Z,74.20
2019-04-03T06:59:11.064Z,75.20
2019-04-03T07:01:40.023Z,75.20
2019-04-03T07:04:09.226Z,74.30
2019-04-03T07:06:38.299Z,74.70
2019-04-03T07:09:08.031Z,73.50
2019-04-03T07:11:43.248Z,73.40
2019-04-03T07:14:11.592Z,72.80
2019-04-03T07:16:41.271Z,72.70
2019-04-03T07:19:11.952Z,72.20
2019-04-03T07:21:41.171Z,72.10
2019-04-03T07:24:10.132Z,71.70
2019-04-03T07:26:39.544Z,72.30
2019-04-03T07:29:11.309Z,72.50
2019-04-03T07:31:39.197Z,72.00
2019-04-03T07:34:08.319Z,71.70
2019-04-03T07:36:37.170Z,71.20
2019-04-03T07:39:10.995Z,74.40
2019-04-03T07:41:41.306Z,72.10
2019-04-03T07:44:10.147Z,73.90
2019-04-03T07:46:39.123Z,74.50
2019-04-03T07:49:09.077Z,74.40
2019-04-03T07:51:38.962Z,76.90
2019-04-03T07:54:07.870Z,79.00
2019-04-03T07:56:36.905Z,80.70
2019-04-03T07:59:06.020Z,83.10
2019-04-03T08:01:35.163Z,83.00
2019-04-03T08:04:04.282Z,82.50
2019-04-03T08:06:35.830Z,83.80
2019-04-03T08:09:08.540Z,85.60
2019-04-03T08:11:37.353Z,85.80
2019-04-03T08:14:09.162Z,86.10
2019-04-03T08:16:41.671Z,86.10
2019-04-03T08:19:09.487Z,86.70
2019-04-03T08:21:39.317Z,86.20
2019-04-03T08:24:09.811Z,86.10
2019-04-03T08:26:38.855Z,85.60
2019-04-03T08:29:12.041Z,85.30
2019-04-03T08:31:44.185Z,83.60
2019-04-03T08:34:17.105Z,85.00
2019-04-03T08:36:43.043Z,83.60
2019-04-03T08:39:18.410Z,81.60
2019-04-03T08:41:47.526Z,81.40
2019-04-03T08:44:17.281Z,79.80
2019-04-03T08:46:46.423Z,81.00
2019-04-03T08:49:16.882Z,81.40
2019-04-03T08:51:45.917Z,81.40
2019-04-03T08:54:14.761Z,77.70
2019-04-03T08:56:43.696Z,75.60
2019-04-03T08:59:13.499Z,76.30
2019-04-03T09:01:42.820Z,69.90
2019-04-03T09:04:14.815Z,71.10
2019-04-03T09:06:44.011Z,74.30
2019-04-03T09:09:12.908Z,77.30
2019-04-03T09:11:41.762Z,80.60
2019-04-03T09:14:10.613Z,80.30
2019-04-03T09:16:40.434Z,79.00
2019-04-03T09:19:28.549Z,80.30
2019-04-03T09:21:57.505Z,82.50
2019-04-03T09:24:29.002Z,85.30
2019-04-03T09:26:57.018Z,84.90
2019-04-03T09:29:25.915Z,83.80
2019-04-03T09:31:56.240Z,83.90
2019-04-03T09:34:28.752Z,83.60
2019-04-03T09:36:56.057Z,84.80
2019-04-03T09:39:25.027Z,86.00
2019-04-03T09:41:54.866Z,88.10
2019-04-03T09:44:25.734Z,88.50
2019-04-03T09:46:54.282Z,89.10
2019-04-03T09:49:23.539Z,89.60
2019-04-03T09:51:53.156Z,88.80
2019-04-03T09:54:22.418Z,87.70
2019-04-03T09:56:59.326Z,87.20
2019-04-03T09:59:21.829Z,87.70
2019-04-03T10:01:50.664Z,87.30
2019-04-03T10:04:21.578Z,88.00
2019-04-03T10:06:50.729Z,88.40
2019-04-03T10:09:20.996Z,89.50
2019-04-03T10:11:51.471Z,88.80
2019-04-03T10:14:20.614Z,90.00
2019-04-03T10:16:49.803Z,88.20
2019-04-03T10:19:19.140Z,87.20
2019-04-03T10:21:47.972Z,86.10
2019-04-03T10:24:16.801Z,90.30
2019-04-03T10:26:45.926Z,90.30
2019-04-03T10:29:15.292Z,90.00
2019-04-03T10:31:44.910Z,88.70
2019-04-03T10:34:14.797Z,90.20
2019-04-03T10:36:44.108Z,88.80
2019-04-03T10:39:13.928Z,88.40
2019-04-03T10:41:43.320Z,87.20
2019-04-03T10:44:12.033Z,84.60
2019-04-03T10:46:41.436Z,79.40
2019-04-03T10:49:10.863Z,74.80
2019-04-03T10:51:41.598Z,71.00
2019-04-03T10:54:10.131Z,62.50
2019-04-03T10:56:40.204Z,62.10
2019-04-03T10:59:12.898Z,58.30
2019-04-03T11:01:40.034Z,60.40
2019-04-03T11:04:09.077Z,61.30
2019-04-03T11:06:37.944Z,65.20
2019-04-03T11:09:08.663Z,69.20
2019-04-03T11:11:37.739Z,62.70
2019-04-03T11:14:07.556Z,61.50
2019-04-03T11:16:38.921Z,65.60
2019-04-03T11:19:07.540Z,68.70
2019-04-03T11:21:36.569Z,77.50
2019-04-03T11:24:06.665Z,79.30
2019-04-03T11:26:36.198Z,78.80
2019-04-03T11:29:05.097Z,77.10
2019-04-03T11:31:40.677Z,75.40
2019-04-03T11:34:07.153Z,75.50
2019-04-03T11:36:36.097Z,79.80
2019-04-03T11:39:13.929Z,70.50
2019-04-03T11:41:38.270Z,72.80
2019-04-03T11:44:07.132Z,71.30
2019-04-03T11:46:35.998Z,73.80
2019-04-03T11:49:05.110Z,70.00
2019-04-03T11:51:34.547Z,72.20
2019-04-03T11:54:06.794Z,71.10
2019-04-03T11:56:34.165Z,62.00
2019-04-03T11:59:02.880Z,65.60
2019-04-03T12:01:31.919Z,69.60
2019-04-03T12:04:00.858Z,68.60
2019-04-03T12:06:29.653Z,70.10
2019-04-03T12:09:01.220Z,68.20
2019-04-03T12:11:30.504Z,74.40
2019-04-03T12:13:59.398Z,73.60
2019-04-03T12:16:29.579Z,74.50
2019-04-03T12:18:58.766Z,69.30
2019-04-03T12:21:29.047Z,71.50
2019-04-03T12:23:58.925Z,71.40
2019-04-03T12:26:28.054Z,69.20
2019-04-03T12:28:56.910Z,70.50
2019-04-03T12:31:28.826Z,74.50
2019-04-03T12:34:03.359Z,74.70
2019-04-03T12:36:28.643Z,70.10
2019-04-03T12:38:57.474Z,67.60
2019-04-03T12:41:27.501Z,66.90
2019-04-03T12:43:57.048Z,69.60
2019-04-03T12:46:27.414Z,70.50
2019-04-03T12:48:56.547Z,69.50
2019-04-03T12:51:29.375Z,68.70
2019-04-03T12:53:59.969Z,72.40
2019-04-03T12:56:30.056Z,74.00
2019-04-03T12:58:59.647Z,69.40
2019-04-03T13:01:28.767Z,73.00
2019-04-03T13:03:57.650Z,72.80
2019-04-03T13:06:27.355Z,66.00
2019-04-03T13:08:58.524Z,66.10
2019-04-03T13:11:28.731Z,65.70
2019-04-03T13:13:59.464Z,64.30
2019-04-03T13:16:28.195Z,62.60
2019-04-03T13:18:57.369Z,60.00
2019-04-03T13:21:26.295Z,57.00
2019-04-03T13:23:56.534Z,53.80
2019-04-03T13:26:25.891Z,57.60
2019-04-03T13:28:54.925Z,53.00
2019-04-03T13:31:24.047Z,52.40
2019-04-03T13:33:53.673Z,49.30
2019-04-03T13:36:24.351Z,52.80
2019-04-03T13:38:53.406Z,51.40
2019-04-03T13:41:22.430Z,42.60
2019-04-03T13:43:53.808Z,41.80
2019-04-03T13:46:22.213Z,39.30
2019-04-03T13:48:51.345Z,38.60
2019-04-03T13:51:20.192Z,40.10
2019-04-03T13:53:49.101Z,39.40
2019-04-03T13:56:18.252Z,37.80
2019-04-03T13:58:47.385Z,38.90
2019-04-03T14:01:18.937Z,38.50
2019-04-03T14:03:48.166Z,40.20
2019-04-03T14:06:18.603Z,42.20
2019-04-03T14:08:47.657Z,42.70
2019-04-03T14:11:16.643Z,43.40
2019-04-03T14:13:45.515Z,40.70
2019-04-03T14:16:21.501Z,40.60
2019-04-03T14:18:49.537Z,40.60
2019-04-03T14:21:17.541Z,41.10
2019-04-03T14:23:46.552Z,38.40
2019-04-03T14:26:15.438Z,41.20
2019-04-03T14:28:45.315Z,39.10
2019-04-03T14:31:14.958Z,37.10
2019-04-03T14:33:46.754Z,40.90
2019-04-03T14:36:18.450Z,41.10
2019-04-03T14:38:46.256Z,41.10
2019-04-03T14:41:17.362Z,41.90
2019-04-03T14:43:46.004Z,41.90
2019-04-03T14:46:17.459Z,39.40
2019-04-03T14:48:47.244Z,39.00
2019-04-03T14:51:16.162Z,40.10
2019-04-03T14:53:46.645Z,38.60
2019-04-03T14:56:15.529Z,36.20
2019-04-03T14:58:44.318Z,36.30
2019-04-03T15:01:13.422Z,35.80
2019-04-03T15:03:42.424Z,36.40
2019-04-03T15:06:12.369Z,37.20
2019-04-03T15:08:42.753Z,36.10
2019-04-03T15:11:12.091Z,34.40
2019-04-03T15:13:41.434Z,35.40
2019-04-03T15:16:10.174Z,36.00
2019-04-03T15:18:39.966Z,36.10
2019-04-03T15:21:09.939Z,35.70
2019-04-03T15:23:41.297Z,36.00
2019-04-03T15:26:09.523Z,35.80
2019-04-03T15:28:38.658Z,34.40
2019-04-03T15:31:07.752Z,35.90
2019-04-03T15:33:36.561Z,35.80
2019-04-03T15:36:05.723Z,35.80
2019-04-03T15:38:35.128Z,35.10
2019-04-03T15:41:04.535Z,35.80
2019-04-03T15:43:33.752Z,36.50
2019-04-03T15:46:02.884Z,35.90
2019-04-03T15:48:32.346Z,35.90
2019-04-03T15:51:01.347Z,36.80
2019-04-03T15:53:30.210Z,36.30
2019-04-03T15:55:59.237Z,37.50
2019-04-03T15:58:29.407Z,38.20
2019-04-03T16:00:58.376Z,37.40
2019-04-03T16:03:27.444Z,37.80
2019-04-03T16:05:56.518Z,37.30
2019-04-03T16:08:25.533Z,37.50
2019-04-03T16:10:57.214Z,37.30
2019-04-03T16:13:26.319Z,36.90
2019-04-03T16:15:56.329Z,37.00
2019-04-03T16:18:26.034Z,37.70
2019-04-03T16:20:56.262Z,38.20
2019-04-03T16:23:25.134Z,38.10
2019-04-03T16:25:54.100Z,38.60
2019-04-03T16:28:23.286Z,38.30
2019-04-03T16:30:53.695Z,38.50
2019-04-03T16:33:24.627Z,37.80
2019-04-03T16:35:53.807Z,38.20
2019-04-03T16:38:24.112Z,37.90
2019-04-03T16:40:53.266Z,37.90
2019-04-03T16:43:23.277Z,35.80
2019-04-03T16:45:52.780Z,37.90
2019-04-03T16:48:21.879Z,37.40
2019-04-03T16:50:50.831Z,38.90
2019-04-03T16:53:20.714Z,39.40
2019-04-03T16:55:49.658Z,39.80
2019-04-03T16:58:18.627Z,40.40
2019-04-03T17:00:47.514Z,40.90
2019-04-03T17:03:16.287Z,40.20
2019-04-03T17:05:46.403Z,41.30
2019-04-03T17:08:15.912Z,41.40
2019-04-03T17:10:44.749Z,41.50
2019-04-03T17:13:14.584Z,42.30
2019-04-03T17:15:45.352Z,42.40
2019-04-03T17:18:16.486Z,42.60
2019-04-03T17:20:49.060Z,42.10
2019-04-03T17:23:18.783Z,42.80
2019-04-03T17:25:50.587Z,42.70
2019-04-03T17:28:19.917Z,43.10
2019-04-03T17:30:50.913Z,43.10
2019-04-03T17:33:20.930Z,43.00
2019-04-03T17:35:49.763Z,43.30
2019-04-03T17:38:19.062Z,43.80
2019-04-03T17:40:48.107Z,44.20
2019-04-03T17:43:17.108Z,44.60
2019-04-03T17:45:46.508Z,45.70
2019-04-03T17:48:15.807Z,46.30
2019-04-03T17:50:45.004Z,46.30
2019-04-03T17:53:13.939Z,46.30
2019-04-03T17:55:45.275Z,46.30
2019-04-03T17:58:16.411Z,46.90
2019-04-03T18:00:45.215Z,49.30
2019-04-03T18:03:14.703Z,49.80
2019-04-03T18:05:45.093Z,50.90
2019-04-03T18:08:15.556Z,52.00
2019-04-03T18:10:44.560Z,54.30
2019-04-03T18:19:46.253Z,62.90
2019-04-03T18:22:15.106Z,63.90
2019-04-03T18:24:43.888Z,65.10
2019-04-03T18:27:12.823Z,64.90
2019-04-03T18:29:44.578Z,65.60
2019-04-03T18:32:13.619Z,65.50
2019-04-03T18:34:43.156Z,67.80
2019-04-03T18:37:12.135Z,71.90
2019-04-03T18:39:44.209Z,72.60
2019-04-03T18:42:13.963Z,73.10
2019-04-03T18:44:42.744Z,75.30
2019-04-03T18:47:11.692Z,74.70
2019-04-03T18:49:40.847Z,78.00
2019-04-03T18:52:10.712Z,76.90
2019-04-03T18:54:42.244Z,78.00
2019-04-03T18:57:10.419Z,80.40
2019-04-03T18:59:39.317Z,80.00
2019-04-03T19:02:08.151Z,82.00
2019-04-03T19:04:37.600Z,83.70
2019-04-03T19:07:07.770Z,84.80
2019-04-03T19:09:36.569Z,87.30
2019-04-03T19:12:08.706Z,89.60
2019-04-03T19:14:37.425Z,90.60
2019-04-03T19:17:06.334Z,90.90
2019-04-03T19:25:33.731Z,91.80
2019-04-03T19:30:50.145Z,92.20
2019-04-03T19:33:19.724Z,92.20
2019-04-03T19:35:51.383Z,92.40
2019-04-03T19:38:20.275Z,92.40
2019-04-03T19:40:49.205Z,92.30
2019-04-03T19:43:19.085Z,91.80
2019-04-03T19:45:49.814Z,91.30
2019-04-03T19:48:18.869Z,91.30
2019-04-03T19:50:50.410Z,91.30
2019-04-03T19:53:19.301Z,91.60
2019-04-03T19:55:48.224Z,91.90
2019-04-03T19:58:17.085Z,92.10
2019-04-03T20:00:46.015Z,92.30
2019-04-03T20:03:14.893Z,92.60
2019-04-03T20:05:44.179Z,92.90
2019-04-03T20:08:13.622Z,93.20
2019-04-03T20:10:43.534Z,93.40
2019-04-03T20:13:12.458Z,93.60
2019-04-03T20:15:42.895Z,93.80
2019-04-03T20:18:11.861Z,94.00
2019-04-03T20:20:41.165Z,94.20
2019-04-03T20:23:10.735Z,94.40
2019-04-03T20:25:40.294Z,94.50
2019-04-03T20:28:09.437Z,94.60
2019-04-03T20:30:39.037Z,94.90
2019-04-03T20:33:08.023Z,94.90
2019-04-03T20:35:37.161Z,94.90
2019-04-03T20:38:06.031Z,94.90
2019-04-03T20:40:41.681Z,94.90
2019-04-03T20:43:11.953Z,94.90
2019-04-03T20:45:41.038Z,94.90
2019-04-03T20:48:09.846Z,94.90
2019-04-03T20:50:38.776Z,94.80
2019-04-03T20:53:07.739Z,94.90
2019-04-03T20:55:38.047Z,94.90
2019-04-03T20:58:06.887Z,95.10
2019-04-03T21:00:36.393Z,94.90
2019-04-03T21:03:05.287Z,94.80
2019-04-03T21:05:34.156Z,94.80
2019-04-03T21:08:02.954Z,94.80
2019-04-03T21:10:32.049Z,94.90
2019-04-03T21:13:01.106Z,94.80
2019-04-03T21:15:29.916Z,94.80
2019-04-03T21:17:58.728Z,94.80
2019-04-03T21:20:27.529Z,94.70
2019-04-03T21:22:56.397Z,94.90
2019-04-03T21:25:25.169Z,95.10
2019-04-03T21:27:53.965Z,95.00
2019-04-03T21:30:24.043Z,94.90
2019-04-03T21:32:55.363Z,94.70
2019-04-03T21:35:24.232Z,94.80
2019-04-03T21:37:53.001Z,95.10
2019-04-03T21:40:22.279Z,95.20
2019-04-03T21:42:51.722Z,95.10
2019-04-03T21:45:20.589Z,95.10
2019-04-03T21:47:49.319Z,95.10
2019-04-03T21:50:19.311Z,95.20
2019-04-03T21:52:48.762Z,95.20
2019-04-03T21:55:17.564Z,95.10
2019-04-03T21:57:46.345Z,95.10
2019-04-03T22:00:18.726Z,95.10
2019-04-03T22:02:49.852Z,95.00
2019-04-03T22:05:18.050Z,95.10
2019-04-03T22:07:46.844Z,95.30
2019-04-03T22:10:15.790Z,95.70
2019-04-03T22:12:44.496Z,95.50
2019-04-03T22:15:14.449Z,95.50
2019-04-03T22:17:43.867Z,95.60
2019-04-03T22:20:12.756Z,95.60
2019-04-03T22:22:42.009Z,95.90
2019-04-03T22:25:15.040Z,95.80
2019-04-03T22:27:43.935Z,95.70
2019-04-03T22:30:12.927Z,95.90
2019-04-03T22:32:41.709Z,96.00
2019-04-03T22:35:10.973Z,96.00
2019-04-03T22:37:39.801Z,96.10
2019-04-03T22:40:10.830Z,96.00
2019-04-03T22:42:39.751Z,96.10
2019-04-03T22:45:08.744Z,96.10
2019-04-03T22:47:37.592Z,96.00
2019-04-03T22:50:06.731Z,95.90
2019-04-03T22:52:35.555Z,95.80
2019-04-03T22:55:06.457Z,95.70
2019-04-03T22:57:35.357Z,95.60
2019-04-03T23:00:06.276Z,95.40
2019-04-03T23:02:35.124Z,95.20
2019-04-03T23:05:04.679Z,95.10
2019-04-03T23:07:33.630Z,95.20
2019-04-03T23:10:02.402Z,94.80
2019-04-03T23:12:33.120Z,94.80
2019-04-03T23:15:04.154Z,94.80
2019-04-03T23:17:33.371Z,94.70
2019-04-03T23:20:02.116Z,94.80
2019-04-03T23:22:31.113Z,94.80
2019-04-03T23:25:00.140Z,94.60
2019-04-03T23:27:29.145Z,94.50
2019-04-03T23:29:57.905Z,94.60
2019-04-03T23:32:26.894Z,94.50
2019-04-03T23:34:55.773Z,94.50
2019-04-03T23:37:24.787Z,94.50
2019-04-03T23:39:54.466Z,94.50
2019-04-03T23:42:23.326Z,94.50
2019-04-03T23:44:53.088Z,94.50
2019-04-03T23:47:22.129Z,94.50
2019-04-03T23:49:51.188Z,94.50
2019-04-03T23:52:20.439Z,94.50
2019-04-03T23:54:49.199Z,94.70
2019-04-03T23:57:18.057Z,94.80
2019-04-03T23:59:46.917Z,94.90
